sensor_id;sensor_type;location;lat;lon;timestamp;temperature;humidity
41060;DHT22;26811;53.160;8.202;2022-11-20T00:04:27;1.10;99.90
41060;DHT22;26811;53.160;8.202;2022-11-20T00:09:27;1.10;99.90
41060;DHT22;26811;53.160;8.202;2022-11-20T00:14:27;1.10;99.90
41060;DHT22;26811;53.160;8.202;2022-11-20T00:19:28;1.10;99.90
41060;DHT22;26811;53.160;8.202;2022-11-20T00:24:28;1.10;99.90
41060;DHT22;26811;53.160;8.202;2022-11-20T00:29:29;1.10;99.90
41060;DHT22;26811;53.160;8.202;2022-11-20T00:34:29;1.10;99.90
41060;DHT22;26811;53.160;8.202;2022-11-20T00:39:30;1.10;99.90
41060;DHT22;26811;53.160;8.202;2022-11-20T00:44:30;1.20;99.90
41060;DHT22;26811;53.160;8.202;2022-11-20T00:49:31;1.20;99.90
41060;DHT22;26811;53.160;8.202;2022-11-20T00:54:31;1.20;99.90
41060;DHT22;26811;53.160;8.202;2022-11-20T00:59:31;1.20;99.90
41060;DHT22;26811;53.160;8.202;2022-11-20T01:04:32;1.20;99.90
41060;DHT22;26811;53.160;8.202;2022-11-20T01:09:32;1.20;99.90
41060;DHT22;26811;53.160;8.202;2022-11-20T01:14:33;1.20;99.90
41060;DHT22;26811;53.160;8.202;2022-11-20T01:19:33;1.20;99.90
41060;DHT22;26811;53.160;8.202;2022-11-20T01:24:57;1.20;99.90
41060;DHT22;26811;53.160;8.202;2022-11-20T01:30:03;1.20;99.90
41060;DHT22;26811;53.160;8.202;2022-11-20T01:35:06;1.20;99.90
41060;DHT22;26811;53.160;8.202;2022-11-20T01:40:28;1.20;99.90
41060;DHT22;26811;53.160;8.202;2022-11-20T01:50:54;1.20;99.90
41060;DHT22;26811;53.160;8.202;2022-11-20T01:55:58;1.20;99.90
41060;DHT22;26811;53.160;8.202;2022-11-20T02:06:30;1.30;99.90
41060;DHT22;26811;53.160;8.202;2022-11-20T02:11:43;1.20;99.90
41060;DHT22;26811;53.160;8.202;2022-11-20T02:16:49;1.30;99.90
41060;DHT22;26811;53.160;8.202;2022-11-20T02:21:58;1.30;99.90
41060;DHT22;26811;53.160;8.202;2022-11-20T02:27:05;1.30;99.90
41060;DHT22;26811;53.160;8.202;2022-11-20T02:37:33;1.30;99.90
41060;DHT22;26811;53.160;8.202;2022-11-20T02:42:41;1.30;99.90
41060;DHT22;26811;53.160;8.202;2022-11-20T02:52:53;1.40;99.90
41060;DHT22;26811;53.160;8.202;2022-11-20T02:58:04;1.30;99.90
41060;DHT22;26811;53.160;8.202;2022-11-20T03:03:05;1.30;99.90
41060;DHT22;26811;53.160;8.202;2022-11-20T03:08:05;1.40;99.90
41060;DHT22;26811;53.160;8.202;2022-11-20T03:13:09;1.40;99.90
41060;DHT22;26811;53.160;8.202;2022-11-20T03:18:15;1.40;99.90
41060;DHT22;26811;53.160;8.202;2022-11-20T03:23:16;1.40;99.90
41060;DHT22;26811;53.160;8.202;2022-11-20T03:28:19;1.40;99.90
41060;DHT22;26811;53.160;8.202;2022-11-20T03:33:22;1.40;99.90
41060;DHT22;26811;53.160;8.202;2022-11-20T03:38:23;1.40;99.90
41060;DHT22;26811;53.160;8.202;2022-11-20T03:43:24;1.40;99.90
41060;DHT22;26811;53.160;8.202;2022-11-20T03:48:24;1.40;99.90
41060;DHT22;26811;53.160;8.202;2022-11-20T03:53:28;1.40;99.90
41060;DHT22;26811;53.160;8.202;2022-11-20T03:58:32;1.40;99.90
41060;DHT22;26811;53.160;8.202;2022-11-20T04:03:42;1.40;99.90
41060;DHT22;26811;53.160;8.202;2022-11-20T04:08:43;1.40;99.90
41060;DHT22;26811;53.160;8.202;2022-11-20T04:13:57;1.30;99.90
41060;DHT22;26811;53.160;8.202;2022-11-20T04:18:58;1.30;99.90
41060;DHT22;26811;53.160;8.202;2022-11-20T04:23:59;1.30;99.90
41060;DHT22;26811;53.160;8.202;2022-11-20T04:29:04;1.40;99.90
41060;DHT22;26811;53.160;8.202;2022-11-20T04:34:10;1.40;99.90
41060;DHT22;26811;53.160;8.202;2022-11-20T04:39:14;1.50;99.90
41060;DHT22;26811;53.160;8.202;2022-11-20T04:44:17;1.50;99.90
41060;DHT22;26811;53.160;8.202;2022-11-20T04:49:17;1.50;99.90
41060;DHT22;26811;53.160;8.202;2022-11-20T04:54:27;1.60;99.90
41060;DHT22;26811;53.160;8.202;2022-11-20T04:59:30;1.60;99.90
41060;DHT22;26811;53.160;8.202;2022-11-20T05:04:31;1.60;99.90
41060;DHT22;26811;53.160;8.202;2022-11-20T05:09:31;1.60;99.90
41060;DHT22;26811;53.160;8.202;2022-11-20T05:14:41;1.50;99.90
41060;DHT22;26811;53.160;8.202;2022-11-20T05:19:42;1.50;99.90
41060;DHT22;26811;53.160;8.202;2022-11-20T05:24:44;1.50;99.90
41060;DHT22;26811;53.160;8.202;2022-11-20T05:29:52;1.40;99.90
41060;DHT22;26811;53.160;8.202;2022-11-20T05:34:53;1.50;99.90
41060;DHT22;26811;53.160;8.202;2022-11-20T05:39:59;1.50;99.90
41060;DHT22;26811;53.160;8.202;2022-11-20T05:45:03;1.50;99.90
41060;DHT22;26811;53.160;8.202;2022-11-20T05:50:07;1.40;99.90
41060;DHT22;26811;53.160;8.202;2022-11-20T05:55:10;1.40;99.90
41060;DHT22;26811;53.160;8.202;2022-11-20T06:00:14;1.40;99.90
41060;DHT22;26811;53.160;8.202;2022-11-20T06:05:18;1.40;99.90
41060;DHT22;26811;53.160;8.202;2022-11-20T06:10:21;1.30;99.90
41060;DHT22;26811;53.160;8.202;2022-11-20T06:15:24;1.30;99.90
41060;DHT22;26811;53.160;8.202;2022-11-20T06:20:31;1.30;99.90
41060;DHT22;26811;53.160;8.202;2022-11-20T06:25:43;1.30;99.90
41060;DHT22;26811;53.160;8.202;2022-11-20T06:30:44;1.20;99.90
41060;DHT22;26811;53.160;8.202;2022-11-20T06:35:45;1.20;99.90
41060;DHT22;26811;53.160;8.202;2022-11-20T06:40:48;1.20;99.90
41060;DHT22;26811;53.160;8.202;2022-11-20T06:45:53;1.20;99.90
41060;DHT22;26811;53.160;8.202;2022-11-20T06:50:54;1.20;99.90
41060;DHT22;26811;53.160;8.202;2022-11-20T06:55:57;1.20;99.90
41060;DHT22;26811;53.160;8.202;2022-11-20T07:01:04;1.20;99.90
41060;DHT22;26811;53.160;8.202;2022-11-20T07:06:08;1.20;99.90
41060;DHT22;26811;53.160;8.202;2022-11-20T07:11:11;1.20;99.90
41060;DHT22;26811;53.160;8.202;2022-11-20T07:16:12;1.30;99.90
41060;DHT22;26811;53.160;8.202;2022-11-20T07:21:15;1.20;99.90
41060;DHT22;26811;53.160;8.202;2022-11-20T07:26:16;1.20;99.90
41060;DHT22;26811;53.160;8.202;2022-11-20T07:31:17;1.20;99.90
41060;DHT22;26811;53.160;8.202;2022-11-20T07:36:17;1.30;99.90
41060;DHT22;26811;53.160;8.202;2022-11-20T07:41:20;1.20;99.90
41060;DHT22;26811;53.160;8.202;2022-11-20T07:46:23;1.20;99.90
41060;DHT22;26811;53.160;8.202;2022-11-20T07:51:27;1.30;99.90
41060;DHT22;26811;53.160;8.202;2022-11-20T07:56:29;1.40;99.90
41060;DHT22;26811;53.160;8.202;2022-11-20T08:01:32;1.50;99.90
41060;DHT22;26811;53.160;8.202;2022-11-20T08:06:39;1.60;99.90
41060;DHT22;26811;53.160;8.202;2022-11-20T08:11:39;1.60;99.90
41060;DHT22;26811;53.160;8.202;2022-11-20T08:16:59;1.70;99.90
41060;DHT22;26811;53.160;8.202;2022-11-20T08:21:59;1.70;99.90
41060;DHT22;26811;53.160;8.202;2022-11-20T08:27:03;1.70;99.90
41060;DHT22;26811;53.160;8.202;2022-11-20T08:32:04;1.80;99.90
41060;DHT22;26811;53.160;8.202;2022-11-20T08:37:07;1.80;99.90
41060;DHT22;26811;53.160;8.202;2022-11-20T08:42:07;1.90;99.90
41060;DHT22;26811;53.160;8.202;2022-11-20T08:47:08;2.00;99.90
41060;DHT22;26811;53.160;8.202;2022-11-20T08:52:09;2.10;99.90
41060;DHT22;26811;53.160;8.202;2022-11-20T08:57:09;2.20;99.90
41060;DHT22;26811;53.160;8.202;2022-11-20T09:02:10;2.30;99.90
41060;DHT22;26811;53.160;8.202;2022-11-20T09:07:11;2.40;99.90
41060;DHT22;26811;53.160;8.202;2022-11-20T09:12:11;2.30;99.90
41060;DHT22;26811;53.160;8.202;2022-11-20T09:17:12;2.40;99.90
41060;DHT22;26811;53.160;8.202;2022-11-20T09:22:15;2.40;99.90
41060;DHT22;26811;53.160;8.202;2022-11-20T09:27:15;2.50;99.90
41060;DHT22;26811;53.160;8.202;2022-11-20T09:32:21;2.80;99.90
41060;DHT22;26811;53.160;8.202;2022-11-20T09:37:21;3.10;99.90
41060;DHT22;26811;53.160;8.202;2022-11-20T09:58:22;3.00;99.90
41060;DHT22;26811;53.160;8.202;2022-11-20T10:09:04;2.90;99.90
41060;DHT22;26811;53.160;8.202;2022-11-20T10:14:22;2.80;99.90
41060;DHT22;26811;53.160;8.202;2022-11-20T10:30:03;3.20;99.90
41060;DHT22;26811;53.160;8.202;2022-11-20T10:35:14;3.30;99.90
41060;DHT22;26811;53.160;8.202;2022-11-20T10:50:27;3.30;99.90
41060;DHT22;26811;53.160;8.202;2022-11-20T10:55:45;3.30;99.90
41060;DHT22;26811;53.160;8.202;2022-11-20T11:00:47;3.40;99.90
41060;DHT22;26811;53.160;8.202;2022-11-20T11:05:51;3.70;99.90
41060;DHT22;26811;53.160;8.202;2022-11-20T11:10:55;4.10;99.90
41060;DHT22;26811;53.160;8.202;2022-11-20T11:15:57;4.40;99.90
41060;DHT22;26811;53.160;8.202;2022-11-20T11:21:02;4.50;99.90
41060;DHT22;26811;53.160;8.202;2022-11-20T11:26:04;4.50;99.90
41060;DHT22;26811;53.160;8.202;2022-11-20T11:31:04;4.60;99.90
41060;DHT22;26811;53.160;8.202;2022-11-20T11:36:16;4.70;99.90
41060;DHT22;26811;53.160;8.202;2022-11-20T11:41:19;4.50;99.90
41060;DHT22;26811;53.160;8.202;2022-11-20T11:51:20;4.50;99.90
41060;DHT22;26811;53.160;8.202;2022-11-20T11:56:21;4.50;99.90
41060;DHT22;26811;53.160;8.202;2022-11-20T12:06:33;4.20;99.90
41060;DHT22;26811;53.160;8.202;2022-11-20T12:11:42;4.20;99.90
41060;DHT22;26811;53.160;8.202;2022-11-20T12:16:43;4.10;99.90
41060;DHT22;26811;53.160;8.202;2022-11-20T12:31:52;4.20;99.90
41060;DHT22;26811;53.160;8.202;2022-11-20T12:37:19;4.10;99.90
41060;DHT22;26811;53.160;8.202;2022-11-20T12:42:37;3.90;99.90
41060;DHT22;26811;53.160;8.202;2022-11-20T12:53:07;3.60;99.90
41060;DHT22;26811;53.160;8.202;2022-11-20T13:08:24;3.20;99.90
41060;DHT22;26811;53.160;8.202;2022-11-20T13:18:44;3.00;99.90
41060;DHT22;26811;53.160;8.202;2022-11-20T13:23:45;3.10;99.90
41060;DHT22;26811;53.160;8.202;2022-11-20T13:28:47;3.60;99.90
41060;DHT22;26811;53.160;8.202;2022-11-20T13:33:49;4.00;99.90
41060;DHT22;26811;53.160;8.202;2022-11-20T13:38:53;4.20;99.90
41060;DHT22;26811;53.160;8.202;2022-11-20T13:43:58;4.40;99.90
41060;DHT22;26811;53.160;8.202;2022-11-20T13:48:58;4.50;99.90
41060;DHT22;26811;53.160;8.202;2022-11-20T13:54:10;4.60;99.90
41060;DHT22;26811;53.160;8.202;2022-11-20T14:04:38;4.20;99.90
41060;DHT22;26811;53.160;8.202;2022-11-20T14:09:51;4.00;99.90
41060;DHT22;26811;53.160;8.202;2022-11-20T14:14:55;3.80;99.90
41060;DHT22;26811;53.160;8.202;2022-11-20T14:20:06;3.50;99.90
41060;DHT22;26811;53.160;8.202;2022-11-20T14:25:28;3.40;99.90
41060;DHT22;26811;53.160;8.202;2022-11-20T14:30:28;3.30;99.90
41060;DHT22;26811;53.160;8.202;2022-11-20T14:35:30;3.10;99.90
41060;DHT22;26811;53.160;8.202;2022-11-20T14:40:34;2.90;99.90
41060;DHT22;26811;53.160;8.202;2022-11-20T14:45:36;2.80;99.90
41060;DHT22;26811;53.160;8.202;2022-11-20T14:50:37;2.80;99.90
41060;DHT22;26811;53.160;8.202;2022-11-20T14:55:38;2.70;99.90
41060;DHT22;26811;53.160;8.202;2022-11-20T15:00:38;2.60;99.90
41060;DHT22;26811;53.160;8.202;2022-11-20T15:05:46;2.60;99.90
41060;DHT22;26811;53.160;8.202;2022-11-20T15:10:48;2.60;99.90
41060;DHT22;26811;53.160;8.202;2022-11-20T15:15:50;2.50;99.90
41060;DHT22;26811;53.160;8.202;2022-11-20T15:20:50;2.30;99.90
41060;DHT22;26811;53.160;8.202;2022-11-20T15:25:52;2.00;99.90
41060;DHT22;26811;53.160;8.202;2022-11-20T15:30:52;1.80;99.90
41060;DHT22;26811;53.160;8.202;2022-11-20T15:35:52;1.50;99.90
41060;DHT22;26811;53.160;8.202;2022-11-20T15:40:53;1.40;99.90
41060;DHT22;26811;53.160;8.202;2022-11-20T15:45:55;1.20;99.90
41060;DHT22;26811;53.160;8.202;2022-11-20T15:56:13;1.00;99.90
41060;DHT22;26811;53.160;8.202;2022-11-20T16:01:14;0.90;99.90
41060;DHT22;26811;53.160;8.202;2022-11-20T16:06:15;0.80;99.90
41060;DHT22;26811;53.160;8.202;2022-11-20T16:11:16;0.80;99.90
41060;DHT22;26811;53.160;8.202;2022-11-20T16:16:21;0.70;99.90
41060;DHT22;26811;53.160;8.202;2022-11-20T16:21:22;0.60;99.90
41060;DHT22;26811;53.160;8.202;2022-11-20T16:26:32;0.50;99.90
41060;DHT22;26811;53.160;8.202;2022-11-20T16:31:33;0.50;99.90
41060;DHT22;26811;53.160;8.202;2022-11-20T16:36:34;0.40;99.90
41060;DHT22;26811;53.160;8.202;2022-11-20T16:41:34;0.40;99.90
41060;DHT22;26811;53.160;8.202;2022-11-20T16:46:35;0.40;99.90
41060;DHT22;26811;53.160;8.202;2022-11-20T16:51:35;0.40;99.90
41060;DHT22;26811;53.160;8.202;2022-11-20T16:56:36;0.60;99.90
41060;DHT22;26811;53.160;8.202;2022-11-20T17:01:37;0.60;99.90
41060;DHT22;26811;53.160;8.202;2022-11-20T17:06:42;0.70;99.90
41060;DHT22;26811;53.160;8.202;2022-11-20T17:11:43;0.70;99.90
41060;DHT22;26811;53.160;8.202;2022-11-20T17:16:44;0.60;99.90
41060;DHT22;26811;53.160;8.202;2022-11-20T17:21:44;0.50;99.90
41060;DHT22;26811;53.160;8.202;2022-11-20T17:26:45;0.50;99.90
41060;DHT22;26811;53.160;8.202;2022-11-20T17:31:47;0.40;99.90
41060;DHT22;26811;53.160;8.202;2022-11-20T17:36:48;0.30;99.90
41060;DHT22;26811;53.160;8.202;2022-11-20T17:41:48;0.20;99.90
41060;DHT22;26811;53.160;8.202;2022-11-20T17:47:09;0.10;99.90
41060;DHT22;26811;53.160;8.202;2022-11-20T17:52:09;0.00;99.90
41060;DHT22;26811;53.160;8.202;2022-11-20T17:57:09;-0.10;99.90
41060;DHT22;26811;53.160;8.202;2022-11-20T18:02:29;-0.10;99.90
41060;DHT22;26811;53.160;8.202;2022-11-20T18:07:29;-0.20;99.90
41060;DHT22;26811;53.160;8.202;2022-11-20T18:12:30;-0.30;99.90
41060;DHT22;26811;53.160;8.202;2022-11-20T18:17:30;-0.30;99.90
41060;DHT22;26811;53.160;8.202;2022-11-20T18:22:31;-0.30;99.90
41060;DHT22;26811;53.160;8.202;2022-11-20T18:27:31;-0.40;99.90
41060;DHT22;26811;53.160;8.202;2022-11-20T18:32:33;-0.40;99.90
41060;DHT22;26811;53.160;8.202;2022-11-20T18:37:33;-0.40;99.90
41060;DHT22;26811;53.160;8.202;2022-11-20T18:42:35;-0.30;99.90
41060;DHT22;26811;53.160;8.202;2022-11-20T18:47:54;-0.20;99.90
41060;DHT22;26811;53.160;8.202;2022-11-20T18:52:55;-0.10;99.90
41060;DHT22;26811;53.160;8.202;2022-11-20T18:57:55;-0.10;99.90
41060;DHT22;26811;53.160;8.202;2022-11-20T19:02:56;0.00;99.90
41060;DHT22;26811;53.160;8.202;2022-11-20T19:07:56;0.10;99.90
41060;DHT22;26811;53.160;8.202;2022-11-20T19:12:57;0.10;99.90
41060;DHT22;26811;53.160;8.202;2022-11-20T19:17:58;0.20;99.90
41060;DHT22;26811;53.160;8.202;2022-11-20T19:23:03;0.20;99.90
41060;DHT22;26811;53.160;8.202;2022-11-20T19:28:04;0.30;99.90
41060;DHT22;26811;53.160;8.202;2022-11-20T19:33:04;0.30;99.90
41060;DHT22;26811;53.160;8.202;2022-11-20T19:38:11;0.20;99.90
41060;DHT22;26811;53.160;8.202;2022-11-20T19:43:11;0.20;99.90
41060;DHT22;26811;53.160;8.202;2022-11-20T19:48:12;0.20;99.90
41060;DHT22;26811;53.160;8.202;2022-11-20T19:53:12;0.20;99.90
41060;DHT22;26811;53.160;8.202;2022-11-20T19:58:17;0.20;99.90
41060;DHT22;26811;53.160;8.202;2022-11-20T20:03:21;0.30;99.90
41060;DHT22;26811;53.160;8.202;2022-11-20T20:08:25;0.30;99.90
41060;DHT22;26811;53.160;8.202;2022-11-20T20:13:28;0.30;99.90
41060;DHT22;26811;53.160;8.202;2022-11-20T20:18:29;0.30;99.90
41060;DHT22;26811;53.160;8.202;2022-11-20T20:23:32;0.30;99.90
41060;DHT22;26811;53.160;8.202;2022-11-20T20:28:37;0.30;99.90
41060;DHT22;26811;53.160;8.202;2022-11-20T20:33:38;0.30;99.90
41060;DHT22;26811;53.160;8.202;2022-11-20T20:38:39;0.30;99.90
41060;DHT22;26811;53.160;8.202;2022-11-20T20:43:42;0.20;99.90
41060;DHT22;26811;53.160;8.202;2022-11-20T20:49:01;0.20;99.90
41060;DHT22;26811;53.160;8.202;2022-11-20T20:54:02;0.10;99.90
41060;DHT22;26811;53.160;8.202;2022-11-20T20:59:03;0.10;99.90
41060;DHT22;26811;53.160;8.202;2022-11-20T21:04:03;0.00;99.90
41060;DHT22;26811;53.160;8.202;2022-11-20T21:09:12;0.00;99.90
41060;DHT22;26811;53.160;8.202;2022-11-20T21:14:13;-0.10;99.90
41060;DHT22;26811;53.160;8.202;2022-11-20T21:19:14;-0.20;99.90
41060;DHT22;26811;53.160;8.202;2022-11-20T21:24:14;-0.20;99.90
41060;DHT22;26811;53.160;8.202;2022-11-20T21:29:18;-0.20;99.90
41060;DHT22;26811;53.160;8.202;2022-11-20T21:34:22;-0.30;99.90
41060;DHT22;26811;53.160;8.202;2022-11-20T21:39:23;-0.30;99.90
41060;DHT22;26811;53.160;8.202;2022-11-20T21:44:23;-0.20;99.90
41060;DHT22;26811;53.160;8.202;2022-11-20T21:49:24;-0.10;99.90
41060;DHT22;26811;53.160;8.202;2022-11-20T21:54:25;-0.10;99.90
41060;DHT22;26811;53.160;8.202;2022-11-20T21:59:29;-0.20;99.90
41060;DHT22;26811;53.160;8.202;2022-11-20T22:04:29;-0.20;99.90
41060;DHT22;26811;53.160;8.202;2022-11-20T22:09:39;-0.30;99.90
41060;DHT22;26811;53.160;8.202;2022-11-20T22:14:39;-0.30;99.90
41060;DHT22;26811;53.160;8.202;2022-11-20T22:19:40;-0.40;99.90
41060;DHT22;26811;53.160;8.202;2022-11-20T22:24:44;-0.50;99.90
41060;DHT22;26811;53.160;8.202;2022-11-20T22:29:44;-0.40;99.90
41060;DHT22;26811;53.160;8.202;2022-11-20T22:34:45;-0.40;99.90
41060;DHT22;26811;53.160;8.202;2022-11-20T22:39:46;-0.30;99.90
41060;DHT22;26811;53.160;8.202;2022-11-20T22:44:55;-0.40;99.90
41060;DHT22;26811;53.160;8.202;2022-11-20T22:50:05;-0.50;99.90
41060;DHT22;26811;53.160;8.202;2022-11-20T22:55:06;-0.60;99.90
41060;DHT22;26811;53.160;8.202;2022-11-20T23:00:10;-0.60;99.90
41060;DHT22;26811;53.160;8.202;2022-11-20T23:05:11;-0.70;99.90
41060;DHT22;26811;53.160;8.202;2022-11-20T23:10:29;-0.70;99.90
41060;DHT22;26811;53.160;8.202;2022-11-20T23:15:36;-0.80;99.90
41060;DHT22;26811;53.160;8.202;2022-11-20T23:20:53;-0.80;99.90
41060;DHT22;26811;53.160;8.202;2022-11-20T23:25:56;-0.80;99.90
41060;DHT22;26811;53.160;8.202;2022-11-20T23:30:59;-0.70;99.90
41060;DHT22;26811;53.160;8.202;2022-11-20T23:36:00;-0.80;99.90
41060;DHT22;26811;53.160;8.202;2022-11-20T23:41:01;-0.80;99.90
41060;DHT22;26811;53.160;8.202;2022-11-20T23:46:04;-0.70;99.90
41060;DHT22;26811;53.160;8.202;2022-11-20T23:51:17;-0.70;99.90
41060;DHT22;26811;53.160;8.202;2022-11-20T23:56:18;-0.70;99.90
